Time;durP1;ratioP1;P1;durP2;ratioP2;P2;SDS_P1;SDS_P2;PMS_P1;PMS_P2;Temp;Humidity;BMP_temperature;BMP_pressure;BME280_temperature;BME280_humidity;BME280_pressure;Samples;Min_cycle;Max_cycle;Signal;HPM_P1;HPM_P2
2023/10/01 00:00:11;;;;;;;41.00;34.03;;;;;;;;;;5015994;28;20018;-53
2023/10/01 00:02:38;;;;;;;36.22;32.17;;;;;;;;;;5031602;28;20180;-55
2023/10/01 00:05:07;;;;;;;42.45;33.28;;;;;;;;;;5031311;28;20038;-54
2023/10/01 00:07:37;;;;;;;40.13;33.47;;;;;;;;;;5011425;28;20451;-55
2023/10/01 00:10:10;;;;;;;39.30;32.50;;;;;;;;;;5034491;28;20030;-53
2023/10/01 00:12:37;;;;;;;35.20;31.50;;;;;;;;;;5029396;28;20024;-51
2023/10/01 00:15:03;;;;;;;34.80;31.20;;;;;;;;;;5024522;28;20308;-56
2023/10/01 00:17:31;;;;;;;37.60;32.05;;;;;;;;;;5023879;28;20025;-52
2023/10/01 00:20:00;;;;;;;36.97;32.38;;;;;;;;;;5034374;28;20054;-53
2023/10/01 00:22:26;;;;;;;35.88;32.03;;;;;;;;;;5013251;28;20033;-52
2023/10/01 00:24:52;;;;;;;36.67;32.63;;;;;;;;;;5032156;28;20013;-51
2023/10/01 00:27:18;;;;;;;36.25;32.25;;;;;;;;;;5022052;28;20029;-56
2023/10/01 00:29:44;;;;;;;35.55;31.20;;;;;;;;;;5026015;28;20357;-55
2023/10/01 00:32:10;;;;;;;40.20;33.50;;;;;;;;;;5034361;28;20044;-53
2023/10/01 00:34:36;;;;;;;36.88;32.85;;;;;;;;;;5034332;28;20017;-52
2023/10/01 00:37:02;;;;;;;37.67;33.72;;;;;;;;;;5003056;28;20041;-54
2023/10/01 00:39:28;;;;;;;40.97;33.08;;;;;;;;;;5020978;28;20030;-55
2023/10/01 00:41:54;;;;;;;37.78;33.72;;;;;;;;;;5017373;28;20041;-53
2023/10/01 00:44:20;;;;;;;37.25;32.78;;;;;;;;;;5030277;28;20169;-52
2023/10/01 00:46:47;;;;;;;37.60;33.67;;;;;;;;;;5021267;28;20049;-55
2023/10/01 00:49:14;;;;;;;35.90;32.00;;;;;;;;;;5001651;28;20026;-52
2023/10/01 00:51:43;;;;;;;37.13;32.60;;;;;;;;;;5023181;28;20042;-52
2023/10/01 00:54:10;;;;;;;36.75;32.88;;;;;;;;;;5031249;28;20482;-52
2023/10/01 00:56:39;;;;;;;38.25;32.70;;;;;;;;;;5020188;28;20112;-52
2023/10/01 00:59:05;;;;;;;36.88;32.88;;;;;;;;;;5004525;28;20026;-51
2023/10/01 01:01:30;;;;;;;38.30;33.50;;;;;;;;;;5011440;28;20480;-55
2023/10/01 01:03:57;;;;;;;33.33;29.88;;;;;;;;;;5010483;28;20022;-55
2023/10/01 01:06:23;;;;;;;34.70;30.98;;;;;;;;;;4985263;28;20359;-54
2023/10/01 01:08:54;;;;;;;35.65;31.05;;;;;;;;;;4998919;28;20048;-56
2023/10/01 01:11:21;;;;;;;33.65;28.33;;;;;;;;;;5007055;28;20487;-53
2023/10/01 01:13:49;;;;;;;34.15;29.08;;;;;;;;;;5005047;28;20092;-52
2023/10/01 01:16:19;;;;;;;38.70;29.85;;;;;;;;;;5001645;28;20023;-54
2023/10/01 01:18:46;;;;;;;33.92;30.27;;;;;;;;;;4982358;28;20030;-52
2023/10/01 01:21:13;;;;;;;35.58;31.45;;;;;;;;;;4991258;28;20022;-56
2023/10/01 01:23:45;;;;;;;33.97;30.27;;;;;;;;;;4992547;28;20109;-54
2023/10/01 01:26:13;;;;;;;38.58;31.48;;;;;;;;;;5030055;28;20029;-53
2023/10/01 01:28:41;;;;;;;36.10;30.60;;;;;;;;;;5028500;28;20121;-54
2023/10/01 01:31:10;;;;;;;36.15;30.40;;;;;;;;;;4994752;28;20104;-53
2023/10/01 01:33:52;;;;;;;34.78;30.85;;;;;;;;;;5020373;28;20021;-53
2023/10/01 01:36:19;;;;;;;36.85;30.63;;;;;;;;;;5015192;28;20123;-53
2023/10/01 01:39:10;;;;;;;38.53;32.05;;;;;;;;;;5028746;28;20025;-55
2023/10/01 01:41:43;;;;;;;34.85;31.08;;;;;;;;;;5024718;28;20356;-52
2023/10/01 01:44:15;;;;;;;37.85;32.00;;;;;;;;;;5004365;28;20110;-54
2023/10/01 01:46:47;;;;;;;36.63;32.70;;;;;;;;;;5007585;28;20113;-52
2023/10/01 01:49:15;;;;;;;33.90;30.23;;;;;;;;;;5032213;28;20032;-53
2023/10/01 01:51:56;;;;;;;36.17;31.75;;;;;;;;;;5023023;28;20516;-55
2023/10/01 01:54:22;;;;;;;38.25;31.40;;;;;;;;;;5024611;28;20030;-56
2023/10/01 01:56:50;;;;;;;35.15;29.95;;;;;;;;;;5006734;28;20088;-54
2023/10/01 01:59:21;;;;;;;37.95;31.25;;;;;;;;;;5026931;28;20033;-52
2023/10/01 02:01:47;;;;;;;34.58;29.67;;;;;;;;;;5029947;28;20018;-54
2023/10/01 02:04:13;;;;;;;36.92;29.48;;;;;;;;;;5028908;28;20029;-54
2023/10/01 02:06:42;;;;;;;33.85;30.17;;;;;;;;;;5010645;28;20025;-54
2023/10/01 02:09:12;;;;;;;38.10;31.73;;;;;;;;;;5031349;28;20078;-56
2023/10/01 02:11:39;;;;;;;33.28;29.67;;;;;;;;;;5008176;28;20033;-55
2023/10/01 02:14:05;;;;;;;33.45;29.88;;;;;;;;;;5023914;28;20054;-55
2023/10/01 02:16:35;;;;;;;37.40;29.30;;;;;;;;;;5018381;28;20029;-53
2023/10/01 02:19:11;;;;;;;33.33;29.70;;;;;;;;;;5032462;28;20117;-51
2023/10/01 02:21:59;;;;;;;34.50;29.73;;;;;;;;;;5013822;28;20041;-56
2023/10/01 02:27:18;;;;;;;31.15;27.83;;;;;;;;;;5001617;28;20050;-55
2023/10/01 02:32:30;;;;;;;33.70;30.08;;;;;;;;;;5007268;28;20108;-55
2023/10/01 02:34:59;;;;;;;35.67;28.75;;;;;;;;;;5009292;28;20053;-55
2023/10/01 02:37:29;;;;;;;32.60;28.90;;;;;;;;;;5008033;28;20368;-51
2023/10/01 02:39:56;;;;;;;35.72;29.52;;;;;;;;;;5013846;28;20044;-52
2023/10/01 02:42:26;;;;;;;31.30;28.08;;;;;;;;;;5014465;28;20140;-53
2023/10/01 02:44:53;;;;;;;34.88;28.67;;;;;;;;;;5017122;28;20460;-52
2023/10/01 02:47:20;;;;;;;31.08;27.77;;;;;;;;;;5031874;28;20123;-51
2023/10/01 02:49:49;;;;;;;32.22;28.35;;;;;;;;;;5031584;28;20475;-53
2023/10/01 02:52:15;;;;;;;30.25;27.05;;;;;;;;;;5025212;28;20446;-53
2023/10/01 02:54:41;;;;;;;30.25;26.38;;;;;;;;;;5011690;28;20076;-53
2023/10/01 02:57:23;;;;;;;29.65;26.52;;;;;;;;;;5030363;28;20154;-54
2023/10/01 03:02:37;;;;;;;29.20;26.10;;;;;;;;;;5003185;28;20037;-54
2023/10/01 03:05:05;;;;;;;31.85;26.25;;;;;;;;;;5003331;28;20423;-52
2023/10/01 03:07:45;;;;;;;30.92;26.05;;;;;;;;;;5011860;28;20038;-54
2023/10/01 03:10:25;;;;;;;29.83;26.65;;;;;;;;;;5016422;28;20038;-51
2023/10/01 03:12:53;;;;;;;31.40;28.23;;;;;;;;;;5012967;28;20552;-53
2023/10/01 03:15:27;;;;;;;31.98;28.70;;;;;;;;;;5024694;28;20046;-52
2023/10/01 03:17:57;;;;;;;32.40;27.45;;;;;;;;;;5035682;28;20030;-52
2023/10/01 03:26:08;;;;;;;31.17;25.83;;;;;;;;;;5020452;28;20041;-54
2023/10/01 03:31:25;;;;;;;29.92;26.52;;;;;;;;;;5012019;28;20044;-54
2023/10/01 03:33:54;;;;;;;31.23;27.85;;;;;;;;;;5035317;28;20053;-52
2023/10/01 03:36:28;;;;;;;30.33;26.75;;;;;;;;;;5018859;28;20143;-53
2023/10/01 03:39:23;;;;;;;29.30;26.13;;;;;;;;;;5004800;28;20026;-52
2023/10/01 03:41:54;;;;;;;29.55;26.45;;;;;;;;;;5021247;28;20113;-54
2023/10/01 03:47:10;;;;;;;27.10;24.38;;;;;;;;;;5001555;28;20025;-53
2023/10/01 03:49:37;;;;;;;31.25;25.33;;;;;;;;;;5034923;28;20033;-51
2023/10/01 03:52:04;;;;;;;28.63;24.80;;;;;;;;;;5013257;28;20030;-51
2023/10/01 03:57:18;;;;;;;;;;;;;;;;;;5021027;28;20056;-53
2023/10/01 03:59:54;;;;;;;26.45;23.38;;;;;;;;;;5030458;28;19979;-52
2023/10/01 04:02:48;;;;;;;29.00;25.88;;;;;;;;;;4994477;28;20025;-54
2023/10/01 04:05:22;;;;;;;27.05;24.17;;;;;;;;;;4999479;28;20044;-56
2023/10/01 04:07:53;;;;;;;26.75;23.40;;;;;;;;;;5014942;28;20029;-52
2023/10/01 04:10:28;;;;;;;25.65;22.95;;;;;;;;;;5032015;28;20065;-52
2023/10/01 04:12:55;;;;;;;28.33;24.60;;;;;;;;;;5032920;28;20463;-53
2023/10/01 04:15:27;;;;;;;26.13;23.30;;;;;;;;;;5019055;28;20587;-55
2023/10/01 04:18:18;;;;;;;27.52;24.60;;;;;;;;;;5015418;28;20021;-51
2023/10/01 04:20:49;;;;;;;30.08;24.25;;;;;;;;;;5034625;28;20070;-52
2023/10/01 04:23:30;;;;;;;28.08;24.75;;;;;;;;;;5015929;28;20030;-53
2023/10/01 04:26:06;;;;;;;28.75;24.48;;;;;;;;;;5024333;28;20053;-54
2023/10/01 04:28:35;;;;;;;27.85;24.33;;;;;;;;;;5022116;28;20022;-54
2023/10/01 04:31:03;;;;;;;31.63;24.65;;;;;;;;;;5034145;28;20467;-54
2023/10/01 04:33:29;;;;;;;30.73;23.80;;;;;;;;;;5034435;28;20029;-53
2023/10/01 04:35:56;;;;;;;31.80;24.75;;;;;;;;;;5021670;28;20034;-52
2023/10/01 04:38:22;;;;;;;27.85;24.05;;;;;;;;;;5014151;28;20014;-52
2023/10/01 04:40:49;;;;;;;28.38;25.38;;;;;;;;;;5018396;28;20030;-53
2023/10/01 04:43:20;;;;;;;30.85;25.38;;;;;;;;;;5013457;28;20018;-51
2023/10/01 04:45:47;;;;;;;31.13;24.73;;;;;;;;;;5005125;28;20121;-54
2023/10/01 04:48:22;;;;;;;30.42;26.13;;;;;;;;;;5029365;28;20508;-55
2023/10/01 04:50:49;;;;;;;28.00;25.15;;;;;;;;;;5010358;28;20069;-51
2023/10/01 04:53:19;;;;;;;30.98;26.27;;;;;;;;;;5016815;28;20147;-52
2023/10/01 04:55:57;;;;;;;34.58;26.85;;;;;;;;;;5012071;28;20030;-56
2023/10/01 04:58:23;;;;;;;34.60;27.25;;;;;;;;;;5031236;28;20458;-55
2023/10/01 05:00:50;;;;;;;32.00;27.00;;;;;;;;;;5017026;28;20062;-52
2023/10/01 05:03:16;;;;;;;31.40;26.80;;;;;;;;;;5027100;28;20082;-54
2023/10/01 05:05:45;;;;;;;30.27;26.13;;;;;;;;;;5022596;28;20049;-50
2023/10/01 05:08:13;;;;;;;31.02;26.45;;;;;;;;;;4999078;28;20026;-51
2023/10/01 05:10:52;;;;;;;33.20;26.98;;;;;;;;;;5029580;28;20140;-52
2023/10/01 05:13:22;;;;;;;29.10;25.80;;;;;;;;;;5012587;28;20033;-51
2023/10/01 05:15:57;;;;;;;34.70;27.23;;;;;;;;;;5022971;28;20053;-57
2023/10/01 05:18:26;;;;;;;30.55;27.20;;;;;;;;;;5028073;28;20112;-55
2023/10/01 05:20:58;;;;;;;30.58;27.15;;;;;;;;;;5033558;28;20021;-55
2023/10/01 05:23:27;;;;;;;32.17;25.92;;;;;;;;;;5024328;28;20034;-52
2023/10/01 05:25:56;;;;;;;31.25;28.08;;;;;;;;;;5031251;28;20017;-50
2023/10/01 05:28:31;;;;;;;33.10;28.20;;;;;;;;;;5024861;28;20056;-52
2023/10/01 05:31:08;;;;;;;34.05;28.10;;;;;;;;;;5027847;28;20487;-55
2023/10/01 05:33:34;;;;;;;31.70;28.20;;;;;;;;;;4995483;28;20021;-53
2023/10/01 05:36:04;;;;;;;31.42;27.98;;;;;;;;;;5022167;28;20030;-53
2023/10/01 05:38:33;;;;;;;33.33;28.75;;;;;;;;;;5017193;28;20387;-56
2023/10/01 05:41:03;;;;;;;29.95;26.70;;;;;;;;;;5029499;28;20017;-55
2023/10/01 05:43:35;;;;;;;31.05;27.83;;;;;;;;;;5019128;28;20026;-54
2023/10/01 05:46:01;;;;;;;33.83;29.95;;;;;;;;;;5011387;28;20061;-51
2023/10/01 05:48:29;;;;;;;31.77;28.48;;;;;;;;;;5032424;28;20416;-54
2023/10/01 05:50:57;;;;;;;33.90;30.30;;;;;;;;;;5013958;28;20480;-52
2023/10/01 05:53:24;;;;;;;34.22;30.60;;;;;;;;;;5025547;28;20100;-53
2023/10/01 05:55:50;;;;;;;35.67;30.40;;;;;;;;;;5011466;28;20042;-51
2023/10/01 05:58:16;;;;;;;31.75;28.55;;;;;;;;;;5032564;28;20037;-52
2023/10/01 06:00:53;;;;;;;32.70;28.80;;;;;;;;;;5006593;28;20026;-52
2023/10/01 06:03:20;;;;;;;32.25;28.15;;;;;;;;;;4998820;28;20026;-51
2023/10/01 06:05:58;;;;;;;32.03;28.63;;;;;;;;;;5019318;28;20471;-53
2023/10/01 06:08:32;;;;;;;32.30;27.52;;;;;;;;;;5004766;28;20040;-51
2023/10/01 06:10:59;;;;;;;30.92;27.40;;;;;;;;;;5031801;28;20125;-53
2023/10/01 06:13:28;;;;;;;32.33;28.83;;;;;;;;;;5032185;28;20021;-51
2023/10/01 06:15:56;;;;;;;33.22;28.25;;;;;;;;;;5012858;28;20413;-52
2023/10/01 06:18:22;;;;;;;32.88;28.05;;;;;;;;;;5005176;28;20030;-53
2023/10/01 06:20:50;;;;;;;34.72;28.98;;;;;;;;;;5008030;28;20061;-53
2023/10/01 06:23:17;;;;;;;30.45;27.17;;;;;;;;;;5000092;28;20021;-54
2023/10/01 06:25:47;;;;;;;35.17;30.40;;;;;;;;;;5019265;28;20479;-55
2023/10/01 06:28:20;;;;;;;38.60;33.30;;;;;;;;;;5009878;28;20101;-54
2023/10/01 06:30:46;;;;;;;36.63;32.72;;;;;;;;;;5019911;28;20037;-51
2023/10/01 06:33:29;;;;;;;39.83;34.92;;;;;;;;;;5016998;28;20465;-52
2023/10/01 06:38:41;;;;;;;38.88;34.00;;;;;;;;;;5000180;28;20032;-51
2023/10/01 06:41:13;;;;;;;43.92;36.00;;;;;;;;;;5004307;28;20029;-57
2023/10/01 06:43:48;;;;;;;40.45;36.13;;;;;;;;;;5000974;28;20064;-53
2023/10/01 06:46:15;;;;;;;40.80;36.38;;;;;;;;;;5001769;28;20034;-51
2023/10/01 06:48:42;;;;;;;40.67;36.20;;;;;;;;;;5026578;28;20132;-54
2023/10/01 06:51:08;;;;;;;39.17;35.10;;;;;;;;;;5018359;28;20037;-54
2023/10/01 06:53:47;;;;;;;42.60;35.42;;;;;;;;;;5008444;28;20058;-52
2023/10/01 06:56:17;;;;;;;38.17;33.15;;;;;;;;;;5010648;28;20116;-54
2023/10/01 06:59:01;;;;;;;40.65;36.13;;;;;;;;;;5025768;28;20018;-52
2023/10/01 07:01:46;;;;;;;;;;;;;;;;;;5012340;28;20479;-52
2023/10/01 07:04:12;;;;;;;39.13;34.67;;;;;;;;;;5025155;28;19905;-51
2023/10/01 07:06:40;;;;;;;36.50;32.50;;;;;;;;;;5020875;28;20022;-55
2023/10/01 07:09:24;;;;;;;37.08;33.13;;;;;;;;;;5025823;28;20037;-53
2023/10/01 07:11:50;;;;;;;38.13;34.00;;;;;;;;;;5031809;28;20056;-53
2023/10/01 07:14:18;;;;;;;37.03;33.03;;;;;;;;;;5025482;28;20047;-54
2023/10/01 07:16:44;;;;;;;35.67;31.63;;;;;;;;;;5013306;28;20021;-61
2023/10/01 07:19:16;;;;;;;39.55;30.42;;;;;;;;;;5024626;28;20402;-61
2023/10/01 07:21:45;;;;;;;33.65;29.13;;;;;;;;;;4983153;28;20445;-61
2023/10/01 07:24:11;;;;;;;36.17;28.67;;;;;;;;;;5009843;28;20033;-61
2023/10/01 07:26:41;;;;;;;34.28;30.38;;;;;;;;;;5007467;28;20025;-61
2023/10/01 07:29:07;;;;;;;32.20;28.33;;;;;;;;;;5004904;28;20022;-61
2023/10/01 07:31:36;;;;;;;31.08;27.55;;;;;;;;;;5014675;28;20077;-59
2023/10/01 07:34:12;;;;;;;33.92;29.00;;;;;;;;;;5005636;28;20026;-59
2023/10/01 07:36:42;;;;;;;31.20;27.88;;;;;;;;;;5011923;28;20076;-58
2023/10/01 07:39:08;;;;;;;30.67;27.38;;;;;;;;;;5025811;28;20034;-58
2023/10/01 07:41:39;;;;;;;32.22;27.75;;;;;;;;;;5012143;28;20030;-58
2023/10/01 07:44:08;;;;;;;31.05;26.77;;;;;;;;;;5031240;28;20037;-58
2023/10/01 07:46:36;;;;;;;31.58;26.30;;;;;;;;;;5028005;28;20025;-58
2023/10/01 07:49:02;;;;;;;33.22;28.98;;;;;;;;;;5031246;28;20063;-58
2023/10/01 07:51:30;;;;;;;30.63;27.33;;;;;;;;;;5027380;28;20422;-59
2023/10/01 07:53:57;;;;;;;30.02;26.83;;;;;;;;;;5014764;28;20068;-60
2023/10/01 07:56:23;;;;;;;37.55;26.40;;;;;;;;;;4997310;28;20502;-60
2023/10/01 08:01:42;;;;;;;29.67;26.48;;;;;;;;;;5009295;28;20037;-59
2023/10/01 08:04:38;;;;;;;30.27;26.90;;;;;;;;;;4987918;28;20455;-59
2023/10/01 08:06:57;;;;;;;28.25;25.33;;;;;;;;;;5000325;28;20026;-59
2023/10/01 08:09:23;;;;;;;30.52;27.25;;;;;;;;;;5025847;28;20032;-59
2023/10/01 08:11:58;;;;;;;30.25;27.30;;;;;;;;;;5015932;28;20041;-59
2023/10/01 08:14:26;;;;;;;32.83;28.10;;;;;;;;;;5008984;28;20050;-59
2023/10/01 08:17:00;;;;;;;31.23;26.75;;;;;;;;;;5006142;28;20033;-59
2023/10/01 08:19:41;;;;;;;31.63;28.15;;;;;;;;;;5002953;28;20523;-58
2023/10/01 08:22:13;;;;;;;31.15;26.20;;;;;;;;;;5001746;28;20029;-59
2023/10/01 08:24:45;;;;;;;29.35;26.20;;;;;;;;;;4996534;28;20036;-59
2023/10/01 08:27:31;;;;;;;30.98;27.70;;;;;;;;;;5032467;28;20414;-58
2023/10/01 08:30:18;;;;;;;29.80;26.55;;;;;;;;;;5029918;28;20030;-58
2023/10/01 08:32:53;;;;;;;30.80;25.83;;;;;;;;;;4999914;28;20124;-58
2023/10/01 08:35:23;;;;;;;32.63;27.35;;;;;;;;;;5002787;28;20389;-59
2023/10/01 08:37:49;;;;;;;30.73;27.48;;;;;;;;;;5010929;28;20018;-59
2023/10/01 08:40:17;;;;;;;33.00;27.73;;;;;;;;;;5011070;28;20563;-59
2023/10/01 08:42:47;;;;;;;30.15;27.00;;;;;;;;;;5010033;28;20025;-59
2023/10/01 08:45:17;;;;;;;33.00;27.75;;;;;;;;;;5005748;28;20033;-58
2023/10/01 08:47:49;;;;;;;32.13;27.20;;;;;;;;;;5008271;28;20033;-59
2023/10/01 08:52:57;;;;;;;36.45;28.98;;;;;;;;;;5019545;28;20113;-58
2023/10/01 08:55:25;;;;;;;30.23;26.70;;;;;;;;;;5005456;28;20033;-56
2023/10/01 08:57:55;;;;;;;30.50;27.27;;;;;;;;;;5010455;28;20034;-56
2023/10/01 09:00:24;;;;;;;34.00;27.88;;;;;;;;;;5028748;28;20397;-56
2023/10/01 09:02:50;;;;;;;28.65;25.65;;;;;;;;;;5011349;28;20068;-56
2023/10/01 09:05:23;;;;;;;34.72;27.17;;;;;;;;;;5017415;28;20101;-55
2023/10/01 09:07:51;;;;;;;26.73;23.83;;;;;;;;;;5012011;28;20145;-55
2023/10/01 09:10:20;;;;;;;30.00;24.27;;;;;;;;;;5011874;28;20033;-54
2023/10/01 09:12:46;;;;;;;27.98;24.63;;;;;;;;;;5016546;28;20025;-55
2023/10/01 09:15:27;;;;;;;30.13;23.25;;;;;;;;;;5015633;28;20060;-57
2023/10/01 09:17:56;;;;;;;28.83;22.75;;;;;;;;;;5017258;28;20053;-56
2023/10/01 09:21:08;;;;;;;28.05;24.27;;;;;;;;;;5006738;28;20076;-55
2023/10/01 09:23:56;;;;;;;26.45;23.65;;;;;;;;;;5003697;28;20120;-57
2023/10/01 09:26:39;;;;;;;26.13;23.33;;;;;;;;;;5019845;28;20041;-55
2023/10/01 09:29:22;;;;;;;27.27;22.08;;;;;;;;;;5033072;28;20074;-58
2023/10/01 09:31:52;;;;;;;23.85;21.35;;;;;;;;;;5020713;28;20033;-55
2023/10/01 09:34:31;;;;;;;23.75;21.45;;;;;;;;;;5004126;28;20044;-56
2023/10/01 09:37:35;;;;;;;23.95;20.80;;;;;;;;;;5032669;28;20120;-57
2023/10/01 09:40:32;;;;;;;23.63;20.63;;;;;;;;;;5006996;28;20120;-56
2023/10/01 09:42:56;;;;;;;22.70;19.25;;;;;;;;;;5001983;28;20433;-58
2023/10/01 09:45:26;;;;;;;23.25;18.77;;;;;;;;;;5027243;28;20108;-57
2023/10/01 09:48:07;;;;;;;21.83;19.50;;;;;;;;;;4998430;28;20080;-57
2023/10/01 09:50:43;;;;;;;21.25;18.98;;;;;;;;;;5006956;28;20427;-56
2023/10/01 09:53:13;;;;;;;21.40;19.17;;;;;;;;;;5010778;28;20040;-56
2023/10/01 09:55:49;;;;;;;20.95;18.17;;;;;;;;;;5010286;28;20112;-56
2023/10/01 09:58:24;;;;;;;21.92;18.58;;;;;;;;;;5010712;28;20475;-55
2023/10/01 10:01:08;;;;;;;22.38;20.13;;;;;;;;;;5000398;28;20368;-55
2023/10/01 10:03:38;;;;;;;23.15;20.75;;;;;;;;;;5012315;28;20048;-52
2023/10/01 10:06:06;;;;;;;20.95;18.70;;;;;;;;;;5012369;28;20081;-55
2023/10/01 10:08:36;;;;;;;20.73;18.58;;;;;;;;;;5012506;28;20019;-56
2023/10/01 10:11:06;;;;;;;21.17;18.60;;;;;;;;;;5010419;28;20042;-55
2023/10/01 10:13:36;;;;;;;21.45;17.35;;;;;;;;;;5010233;28;20569;-55
2023/10/01 10:16:30;;;;;;;19.77;17.73;;;;;;;;;;5010757;28;20036;-57
2023/10/01 10:19:20;;;;;;;20.38;18.33;;;;;;;;;;5004192;28;20088;-56
2023/10/01 10:24:31;;;;;;;20.65;18.45;;;;;;;;;;5011667;28;20056;-53
2023/10/01 10:27:09;;;;;;;21.67;19.48;;;;;;;;;;5013181;28;20105;-55
2023/10/01 10:29:49;;;;;;;19.55;17.50;;;;;;;;;;5007117;28;20033;-56
2023/10/01 10:32:15;;;;;;;19.77;16.67;;;;;;;;;;5009170;28;20310;-56
2023/10/01 10:35:03;;;;;;;19.02;15.63;;;;;;;;;;5006757;28;20436;-54
2023/10/01 10:37:38;;;;;;;16.70;14.93;;;;;;;;;;5005693;28;20022;-55
2023/10/01 10:42:59;;;;;;;24.50;18.80;;;;;;;;;;5006906;28;20109;-55
2023/10/01 10:45:45;;;;;;;21.77;15.13;;;;;;;;;;5006459;28;20112;-56
2023/10/01 10:48:14;;;;;;;21.38;15.50;;;;;;;;;;5006411;28;20365;-57
2023/10/01 10:50:46;;;;;;;21.40;18.90;;;;;;;;;;5010494;28;20042;-57
2023/10/01 10:53:19;;;;;;;19.67;17.20;;;;;;;;;;5006591;28;20108;-57
2023/10/01 10:55:56;;;;;;;19.30;16.20;;;;;;;;;;5011511;28;20060;-56
2023/10/01 10:58:25;;;;;;;23.80;17.63;;;;;;;;;;5007443;28;20346;-57
2023/10/01 11:00:53;;;;;;;19.92;17.10;;;;;;;;;;5005781;28;20100;-58
2023/10/01 11:03:41;;;;;;;24.10;18.25;;;;;;;;;;5015756;28;20021;-56
2023/10/01 11:06:17;;;;;;;23.88;17.95;;;;;;;;;;5005557;28;20033;-56
2023/10/01 11:08:50;;;;;;;20.27;17.25;;;;;;;;;;4998292;28;20130;-58
2023/10/01 11:11:30;;;;;;;20.77;17.23;;;;;;;;;;5013711;28;20042;-56
2023/10/01 11:14:02;;;;;;;19.75;16.20;;;;;;;;;;4994700;28;20042;-58
2023/10/01 11:16:39;;;;;;;20.42;16.83;;;;;;;;;;5006840;28;20034;-55
2023/10/01 11:19:15;;;;;;;22.17;18.30;;;;;;;;;;5015111;28;20422;-57
2023/10/01 11:21:57;;;;;;;19.73;16.45;;;;;;;;;;5022112;28;20535;-57
2023/10/01 11:24:39;;;;;;;20.27;17.92;;;;;;;;;;5031552;28;20028;-58
2023/10/01 11:27:25;;;;;;;18.40;16.58;;;;;;;;;;4994623;28;20036;-55
2023/10/01 11:30:13;;;;;;;21.85;17.70;;;;;;;;;;5019426;28;20569;-56
2023/10/01 11:33:04;;;;;;;21.38;17.98;;;;;;;;;;5015595;28;20075;-57
2023/10/01 11:35:34;;;;;;;20.63;17.92;;;;;;;;;;5018982;28;20041;-57
2023/10/01 11:38:13;;;;;;;20.95;18.35;;;;;;;;;;5020645;28;20033;-59
2023/10/01 11:43:58;;;;;;;21.15;19.05;;;;;;;;;;5032370;28;20092;-57
2023/10/01 11:46:19;;;;;;;18.92;15.43;;;;;;;;;;5010820;28;20042;-58
2023/10/01 11:49:17;;;;;;;17.63;15.77;;;;;;;;;;5028013;28;20029;-55
2023/10/01 11:51:54;;;;;;;15.75;14.07;;;;;;;;;;4970048;28;20066;-58
2023/10/01 11:54:20;;;;;;;18.33;14.68;;;;;;;;;;5019784;28;20114;-58
2023/10/01 11:57:07;;;;;;;16.02;14.43;;;;;;;;;;5021748;28;20104;-58
2023/10/01 11:59:35;;;;;;;17.27;13.57;;;;;;;;;;5010652;28;20029;-57
2023/10/01 12:02:20;;;;;;;19.85;14.73;;;35.90;99.90;;;;;;5015580;28;20053;-58
2023/10/01 12:04:59;;;;;;;22.00;16.73;;;39.50;99.90;;;;;;5006636;28;20022;-57
2023/10/01 12:07:39;;;;;;;17.05;14.70;;;39.30;99.90;;;;;;5011759;28;20018;-58
2023/10/01 12:10:07;;;;;;;17.58;14.02;;;39.30;99.90;;;;;;5016442;28;20124;-58
2023/10/01 12:12:37;;;;;;;17.48;15.68;;;39.40;99.90;;;;;;5026954;28;20382;-58
2023/10/01 12:17:51;;;;;;;16.10;13.60;;;;;;;;;;5025894;28;20156;-59
2023/10/01 12:20:23;;;;;;;20.15;16.08;;;;;;;;;;5010415;28;20049;-58
2023/10/01 12:23:04;;;;;;;22.27;18.75;;;;;;;;;;5017970;28;20030;-59
2023/10/01 12:25:50;;;;;;;21.35;19.13;;;;;;;;;;5017236;28;20042;-59
2023/10/01 12:28:24;;;;;;;17.30;15.50;;;;;;;;;;5026768;28;20029;-58
2023/10/01 12:31:01;;;;;;;25.35;19.55;;;;;;;;;;5012012;28;20040;-59
2023/10/01 12:33:40;;;;;;;18.13;14.68;;;;;;;;;;5020242;28;20475;-58
2023/10/01 12:36:31;;;;;;;18.00;15.25;;;;;;;;;;5019860;28;20380;-59
2023/10/01 12:44:30;;;;;;;18.25;15.20;;;;;;;;;;5016327;28;20156;-59
2023/10/01 12:47:08;;;;;;;22.92;17.45;;;;;;;;;;5034101;28;20037;-60
2023/10/01 12:49:35;;;;;;;18.02;14.90;;;;;;;;;;5008510;28;20110;-60
2023/10/01 12:52:05;;;;;;;17.52;15.75;;;;;;;;;;5016658;28;20053;-60
2023/10/01 12:54:36;;;;;;;19.83;15.60;;;;;;;;;;5022474;28;20036;-60
2023/10/01 12:57:02;;;;;;;19.25;16.80;;;;;;;;;;5018351;28;20026;-60
2023/10/01 12:59:40;;;;;;;17.02;15.23;;;;;;;;;;5005332;28;20021;-61
2023/10/01 13:02:22;;;;;;;19.33;17.10;;;;;;;;;;5026947;28;20057;-60
2023/10/01 13:07:40;;;;;;;22.30;17.48;;;;;;;;;;4998880;28;20034;-61
2023/10/01 13:10:06;;;;;;;19.42;15.93;;;;;;;;;;5031427;28;20037;-60
2023/10/01 13:12:39;;;;;;;21.65;16.40;;;;;;;;;;5033206;28;20511;-59
2023/10/01 13:15:15;;;;;;;20.83;16.70;;;;;;;;;;5033351;28;20074;-60
2023/10/01 13:17:44;;;;;;;17.48;14.38;;;;;;;;;;5033463;28;20017;-60
2023/10/01 13:20:22;;;;;;;16.70;13.88;;;;;;;;;;5033407;28;20022;-59
2023/10/01 13:22:51;;;;;;;20.30;17.98;;;;;;;;;;5033471;28;20103;-60
2023/10/01 13:25:19;;;;;;;18.95;16.00;;;;;;;;;;5033241;28;20051;-60
2023/10/01 13:27:50;;;;;;;20.58;16.02;;;;;;;;;;5033152;28;20452;-60
2023/10/01 13:30:20;;;;;;;19.50;17.40;;;;;;;;;;5000029;28;20034;-60
2023/10/01 13:35:35;;;;;;;23.40;19.20;;;;;;;;;;5009367;28;20064;-60
2023/10/01 14:11:03;;;;;;;26.48;21.80;;;;;;;;;;4999595;28;20510;-59
2023/10/01 14:13:34;;;;;;;25.45;19.40;;;;;;;;;;5010274;28;20014;-59
2023/10/01 14:16:17;;;;;;;19.77;17.30;;;;;;;;;;5010123;28;20030;-59
2023/10/01 14:18:54;;;;;;;20.08;16.45;;;;;;;;;;4994695;28;20109;-59
2023/10/01 14:21:27;;;;;;;20.83;18.15;;;;;;;;;;5012605;28;20461;-59
2023/10/01 14:23:57;;;;;;;23.38;19.98;;;;;;;;;;5005987;28;20099;-59
2023/10/01 14:26:35;;;;;;;22.77;20.30;;;;;;;;;;5004877;28;20021;-60
2023/10/01 14:29:05;;;;;;;17.80;16.08;;;;;;;;;;5032243;28;20017;-60
2023/10/01 14:34:27;;;;;;;15.98;14.48;;;;;;;;;;4989796;28;20563;-60
2023/10/01 14:36:54;;;;;;;15.52;13.90;;;;;;;;;;5012130;28;20420;-59
2023/10/01 14:39:30;;;;;;;16.33;13.25;;;;;;;;;;5026266;28;20018;-58
2023/10/01 14:41:56;;;;;;;20.55;18.13;;;;;;;;;;5031889;28;20017;-59
2023/10/01 14:44:25;;;;;;;20.45;17.15;;;;;;;;;;5031836;28;20430;-59
2023/10/01 14:46:53;;;;;;;22.40;18.08;;;;;;;;;;5004718;28;20017;-59
2023/10/01 14:49:22;;;;;;;17.00;15.23;;;;;;;;;;5031527;28;20030;-59
2023/10/01 14:51:53;;;;;;;19.52;17.63;;;;;;;;;;5013329;28;20444;-59
2023/10/01 14:54:19;;;;;;;15.40;13.90;;;;;;;;;;5012044;28;20053;-59
2023/10/01 14:56:54;;;;;;;18.50;16.67;;;;;;;;;;5029192;28;20048;-59
2023/10/01 14:59:23;;;;;;;18.98;15.65;;;;;;;;;;5030868;28;20033;-60
2023/10/01 15:01:50;;;;;;;16.70;15.00;;;;;;;;;;5031366;28;20030;-59
2023/10/01 15:04:29;;;;;;;14.18;12.75;;;;;;;;;;5020186;28;20034;-59
2023/10/01 15:07:01;;;;;;;17.02;15.23;;;;;;;;;;5025470;28;20041;-60
2023/10/01 15:09:44;;;;;;;18.70;16.75;;;;;;;;;;5025556;28;20026;-59
2023/10/01 15:12:26;;;;;;;22.45;18.88;;;;;;;;;;5028464;28;20033;-60
2023/10/01 15:14:55;;;;;;;18.05;15.73;;;;;;;;;;5000849;28;20053;-59
2023/10/01 15:17:21;;;;;;;16.67;15.05;;;;;;;;;;5008957;28;20040;-59
2023/10/01 15:19:49;;;;;;;16.20;14.60;;;;;;;;;;4994864;28;20531;-59
2023/10/01 15:22:17;;;;;;;15.68;13.98;;;;;;;;;;4996277;28;20199;-59
2023/10/01 15:24:43;;;;;;;14.43;13.10;;;;;;;;;;5003031;28;20476;-59
2023/10/01 15:27:23;;;;;;;16.42;14.52;;;;;;;;;;5009355;28;20030;-59
2023/10/01 15:29:53;;;;;;;17.33;15.23;;;;;;;;;;5008038;28;20093;-59
2023/10/01 15:32:19;;;;;;;15.00;13.52;;;;;;;;;;4998891;28;20026;-59
2023/10/01 15:34:45;;;;;;;16.23;14.05;;;;;;;;;;5011040;28;20022;-59
2023/10/01 15:37:11;;;;;;;17.48;15.68;;;;;;;;;;5010515;28;20416;-59
2023/10/01 15:39:38;;;;;;;17.45;15.68;;;;;;;;;;5007291;28;20022;-59
2023/10/01 15:42:22;;;;;;;20.25;15.88;;;;;;;;;;5003427;28;20023;-59
2023/10/01 15:44:50;;;;;;;22.35;17.33;;;;;;;;;;5003283;28;20022;-59
2023/10/01 15:50:07;;;;;;;17.20;15.40;;;;;;;;;;4998021;28;20034;-59
2023/10/01 15:52:46;;;;;;;20.08;16.50;;;;;;;;;;5006959;28;20041;-59
2023/10/01 15:55:13;;;;;;;20.33;17.42;;;;;;;;;;4999492;28;20483;-59
2023/10/01 15:57:39;;;;;;;19.52;17.40;;;;;;;;;;5005932;28;20019;-59
2023/10/01 16:00:23;;;;;;;23.13;16.80;;;;;;;;;;5005213;28;20084;-59
2023/10/01 16:02:50;;;;;;;17.65;15.65;;;;;;;;;;5007563;28;20018;-59
2023/10/01 16:05:16;;;;;;;16.73;14.82;;;;;;;;;;5003219;28;20161;-59
2023/10/01 16:07:45;;;;;;;18.48;15.73;;;;;;;;;;4997743;28;20023;-59
2023/10/01 16:10:11;;;;;;;17.88;15.27;;;;;;;;;;5003904;28;20042;-59
2023/10/01 16:12:40;;;;;;;17.73;15.88;;;;;;;;;;5008481;28;20086;-59
2023/10/01 16:15:07;;;;;;;18.80;15.93;;;;;;;;;;5010712;28;20077;-59